Menston, United Kingdom
Current Conditions -  °F | °C
As of 7:20 PM on Tuesday 21 Oct 2014 (Local Time) from EGNM Reporting Station
Few Clouds Few Clouds  
Wind Chill: 34°   Ceiling: Unl
Heat Index: 43°   Visibility: 6mi
Dew Point: 36°   Wind: 20mph
Humidity: 76%   Direction: 280°W
Pressure: 29.85"   Gusts: 32mph
Location:  53.89°N, 1.74°W
Report Text: EGNM 211820Z 28017G28KT 9999 FEW020 06/02 Q1011
Loading
Personal Weather Stations






























Interactive Weather Map
Tropical Storm Tracking
New forecast layout! Learn more

10-Day Weather Forecast

Advertisements
Track Severe Weather on mobile